createdAt,value
2019-05-15T00:05:33.924Z,7.80
2019-05-15T00:11:36.088Z,7.90
2019-05-15T00:17:39.380Z,8.00
2019-05-15T00:23:42.044Z,8.00
2019-05-15T00:29:44.273Z,7.90
2019-05-15T00:35:48.594Z,7.70
2019-05-15T00:41:54.592Z,7.70
2019-05-15T00:47:54.700Z,7.80
2019-05-15T00:53:58.958Z,7.80
2019-05-15T01:00:01.097Z,7.90
2019-05-15T01:06:03.435Z,7.90
2019-05-15T01:12:05.709Z,7.90
2019-05-15T01:18:09.339Z,7.90
2019-05-15T01:24:11.877Z,8.00
2019-05-15T01:30:14.391Z,7.90
2019-05-15T01:36:19.104Z,7.90
2019-05-15T01:42:20.783Z,8.00
2019-05-15T01:48:23.019Z,8.00
2019-05-15T01:54:25.172Z,7.90
2019-05-15T02:00:28.227Z,7.90
2019-05-15T02:06:32.667Z,7.90
2019-05-15T02:12:34.823Z,7.90
2019-05-15T02:18:39.187Z,7.80
2019-05-15T02:24:41.140Z,7.90
2019-05-15T02:30:43.402Z,8.00
2019-05-15T02:36:49.227Z,8.00
2019-05-15T02:42:50.713Z,8.00
2019-05-15T02:48:52.860Z,8.00
2019-05-15T02:54:55.121Z,8.00
2019-05-15T03:00:59.332Z,8.00
2019-05-15T03:07:01.481Z,7.90
2019-05-15T03:13:03.619Z,7.90
2019-05-15T03:19:05.860Z,7.90
2019-05-15T03:25:10.588Z,7.80
2019-05-15T03:31:33.307Z,7.80
2019-05-15T03:37:21.505Z,7.70
2019-05-15T03:43:20.675Z,7.90
2019-05-15T03:49:22.799Z,8.00
2019-05-15T03:55:25.149Z,7.90
2019-05-15T04:01:37.560Z,7.80
2019-05-15T04:07:31.456Z,7.90
2019-05-15T04:13:33.594Z,7.90
2019-05-15T04:19:38.871Z,7.80
2019-05-15T04:25:40.341Z,7.90
2019-05-15T04:31:56.364Z,7.80
2019-05-15T04:37:49.415Z,7.90
2019-05-15T04:43:50.585Z,7.90
2019-05-15T04:49:52.748Z,8.00
2019-05-15T04:55:54.945Z,8.20
2019-05-15T05:02:16.227Z,8.20
2019-05-15T05:08:04.785Z,8.30
2019-05-15T05:14:08.456Z,8.30
2019-05-15T05:20:12.226Z,8.30
2019-05-15T05:26:14.546Z,8.40
2019-05-15T05:32:30.530Z,8.50
2019-05-15T05:38:21.350Z,8.60
2019-05-15T05:44:23.884Z,8.70
2019-05-15T05:50:38.492Z,8.90
2019-05-15T05:56:41.361Z,8.90
2019-05-15T06:02:48.143Z,9.00
2019-05-15T06:08:48.250Z,9.10
2019-05-15T06:14:50.469Z,9.20
2019-05-15T06:20:52.775Z,9.30
2019-05-15T06:26:54.960Z,9.30
2019-05-15T06:33:08.308Z,9.40
2019-05-15T06:39:01.167Z,9.30
2019-05-15T06:45:03.767Z,9.30
2019-05-15T06:51:05.963Z,9.30
2019-05-15T06:57:09.090Z,9.20
2019-05-15T07:03:21.562Z,9.30
2019-05-15T07:09:17.812Z,9.20
2019-05-15T07:15:19.527Z,9.20
2019-05-15T07:21:21.769Z,9.20
2019-05-15T07:27:24.083Z,9.30
2019-05-15T07:33:36.711Z,9.40
2019-05-15T07:39:30.754Z,9.50
2019-05-15T07:45:33.014Z,9.70
2019-05-15T07:51:35.236Z,9.80
2019-05-15T07:57:39.418Z,9.80
2019-05-15T08:03:55.344Z,10.00
2019-05-15T08:09:48.794Z,10.00
2019-05-15T08:15:51.194Z,10.20
2019-05-15T08:21:53.693Z,10.10
2019-05-15T08:27:55.899Z,10.10
2019-05-15T08:34:12.303Z,10.20
2019-05-15T08:40:02.455Z,10.20
2019-05-15T08:46:04.714Z,10.20
2019-05-15T08:52:09.995Z,10.40
2019-05-15T08:58:14.115Z,10.40
2019-05-15T09:04:27.965Z,10.40
2019-05-15T09:10:20.132Z,10.40
2019-05-15T09:16:22.719Z,10.40
2019-05-15T09:22:24.975Z,10.50
2019-05-15T09:28:29.571Z,10.40
2019-05-15T09:34:46.705Z,10.30
2019-05-15T09:40:45.211Z,10.20
2019-05-15T09:46:40.500Z,10.30
2019-05-15T09:52:42.771Z,10.30
2019-05-15T09:58:45.056Z,10.40
2019-05-15T10:04:49.596Z,10.40
2019-05-15T10:10:54.032Z,10.40
2019-05-15T10:16:58.390Z,10.40
2019-05-15T10:23:00.448Z,10.20
2019-05-15T10:29:02.711Z,9.90
2019-05-15T10:35:21.725Z,9.80
2019-05-15T10:41:15.020Z,10.00
2019-05-15T10:47:15.821Z,10.20
2019-05-15T10:53:18.983Z,10.20
2019-05-15T10:59:21.977Z,10.40
2019-05-15T11:05:38.431Z,10.40
2019-05-15T11:11:29.289Z,10.50
2019-05-15T11:17:31.837Z,10.60
2019-05-15T11:23:34.279Z,10.60
2019-05-15T11:29:38.184Z,10.60
2019-05-15T11:35:56.428Z,10.50
2019-05-15T11:41:44.468Z,10.40
2019-05-15T11:47:48.313Z,10.40
2019-05-15T11:53:50.619Z,10.30
2019-05-15T11:59:55.217Z,10.30
2019-05-15T12:05:59.628Z,10.30
2019-05-15T12:12:01.405Z,10.20
2019-05-15T12:18:04.800Z,10.20
2019-05-15T12:24:09.035Z,10.00
2019-05-15T12:30:13.959Z,10.00
2019-05-15T12:36:40.990Z,9.90
2019-05-15T13:00:32.694Z,10.00
2019-05-15T13:06:47.271Z,9.90
2019-05-15T13:12:54.304Z,10.00
2019-05-15T13:18:43.970Z,10.10
2019-05-15T13:24:48.273Z,10.20
2019-05-15T13:30:50.779Z,10.20
2019-05-15T13:36:53.108Z,10.40
2019-05-15T13:42:55.244Z,10.40
2019-05-15T13:48:59.553Z,10.40
2019-05-15T13:55:01.528Z,10.50
2019-05-15T14:01:03.908Z,10.70
2019-05-15T14:07:08.395Z,10.90
2019-05-15T14:13:10.595Z,11.10
2019-05-15T14:19:12.895Z,11.20
2019-05-15T14:25:15.057Z,11.20
2019-05-15T14:31:18.313Z,11.20
2019-05-15T14:37:20.638Z,11.20
2019-05-15T14:43:22.965Z,11.30
2019-05-15T14:49:25.338Z,11.50
2019-05-15T14:55:33.755Z,11.40
2019-05-15T15:01:31.996Z,11.40
2019-05-15T15:07:34.352Z,11.60
2019-05-15T15:13:38.174Z,11.70
2019-05-15T15:19:42.117Z,11.50
2019-05-15T15:25:44.881Z,11.40
2019-05-15T15:31:49.471Z,11.30
2019-05-15T15:37:52.420Z,11.30
2019-05-15T15:43:55.551Z,11.00
2019-05-15T15:49:58.537Z,11.20
2019-05-15T15:56:00.938Z,11.00
2019-05-15T16:02:03.296Z,10.90
2019-05-15T16:08:08.259Z,10.70
2019-05-15T16:14:10.458Z,10.70
2019-05-15T16:20:12.920Z,10.60
2019-05-15T16:26:15.099Z,10.50
2019-05-15T16:32:21.108Z,10.50
2019-05-15T16:38:21.314Z,10.40
2019-05-15T16:44:23.524Z,10.40
2019-05-15T16:50:25.719Z,10.40
2019-05-15T16:56:28.464Z,10.30
2019-05-15T17:02:32.217Z,10.20
2019-05-15T17:08:34.548Z,10.00
2019-05-15T17:14:39.082Z,10.00
2019-05-15T17:20:41.260Z,9.90
2019-05-15T17:26:43.479Z,9.70
2019-05-15T17:32:45.936Z,9.60
2019-05-15T17:38:48.842Z,9.60
2019-05-15T17:44:52.132Z,9.70
2019-05-15T17:50:54.804Z,9.60
2019-05-15T17:56:58.346Z,9.50
2019-05-15T18:03:01.152Z,9.40
2019-05-15T18:09:05.460Z,9.30
2019-05-15T18:15:09.013Z,9.10
2019-05-15T18:21:14.316Z,9.00
2019-05-15T18:27:18.581Z,8.90
2019-05-15T18:33:20.563Z,9.00
2019-05-15T18:39:22.805Z,9.00
2019-05-15T18:45:24.934Z,8.90
2019-05-15T18:51:28.178Z,8.80
2019-05-15T18:57:30.434Z,8.90
2019-05-15T19:03:33.141Z,8.90
2019-05-15T19:09:35.295Z,8.80
2019-05-15T19:15:38.136Z,8.80
2019-05-15T19:21:40.472Z,8.70
2019-05-15T19:27:44.156Z,8.70
2019-05-15T19:33:46.950Z,8.70
2019-05-15T19:39:51.481Z,8.70
2019-05-15T19:45:54.182Z,8.70
2019-05-15T19:51:58.112Z,8.70
2019-05-15T19:58:03.430Z,8.70
2019-05-15T20:04:08.227Z,8.70
2019-05-15T20:10:12.028Z,8.70
2019-05-15T20:16:20.671Z,8.70
2019-05-15T20:22:25.039Z,8.70
2019-05-15T20:28:28.615Z,8.60
2019-05-15T20:34:31.336Z,8.60
2019-05-15T20:40:34.516Z,8.50
2019-05-15T20:46:38.970Z,8.50
2019-05-15T20:52:40.977Z,8.50
2019-05-15T20:58:43.219Z,8.40
2019-05-15T21:04:45.389Z,8.40
2019-05-15T21:10:49.239Z,8.40
2019-05-15T21:16:55.694Z,8.30
2019-05-15T21:22:57.909Z,8.20
2019-05-15T21:29:01.822Z,8.20
2019-05-15T21:35:08.797Z,8.20
2019-05-15T21:41:11.709Z,8.20
2019-05-15T21:47:21.736Z,8.20
2019-05-15T21:53:23.932Z,8.20
2019-05-15T21:59:27.918Z,8.20
2019-05-15T22:05:30.155Z,8.20
2019-05-15T22:11:32.703Z,8.20
2019-05-15T22:17:38.611Z,8.20
2019-05-15T22:23:41.151Z,8.20
2019-05-15T22:29:43.540Z,8.20
2019-05-15T22:35:48.646Z,8.30
2019-05-15T22:41:49.919Z,8.30
2019-05-15T22:47:52.370Z,8.20
2019-05-15T22:53:54.543Z,8.20
2019-05-15T22:59:58.158Z,8.10
2019-05-15T23:06:00.769Z,8.20
2019-05-15T23:12:03.275Z,8.10
2019-05-15T23:18:08.553Z,8.00
2019-05-15T23:24:10.800Z,8.00
2019-05-15T23:30:12.955Z,8.00
2019-05-15T23:36:15.319Z,7.90
2019-05-15T23:42:18.791Z,7.90
2019-05-15T23:48:20.931Z,7.90
2019-05-15T23:54:23.191Z,7.90
